Time;durP1;ratioP1;P1;durP2;ratioP2;P2;SDS_P1;SDS_P2;PMS_P1;PMS_P2;Temp;Humidity;BMP_temperature;BMP_pressure;BME280_temperature;BME280_humidity;BME280_pressure;Samples;Min_cycle;Max_cycle;Signal;HPM_P1;HPM_P2
2022/08/04 00:02:25;;;;;;;6.00;5.60;;;20.60;99.90;;;;;;5063996;28;20193;-77
2022/08/04 00:04:55;;;;;;;6.00;5.40;;;20.60;99.90;;;;;;5061501;28;20257;-77
2022/08/04 00:07:30;;;;;;;5.73;5.33;;;20.60;99.90;;;;;;5062952;28;20208;-76
2022/08/04 00:10:00;;;;;;;6.00;5.60;;;20.50;99.90;;;;;;5064695;28;20198;-77
2022/08/04 00:12:33;;;;;;;6.10;5.70;;;20.50;99.90;;;;;;5064386;28;20566;-77
2022/08/04 00:15:02;;;;;;;6.20;5.77;;;20.50;99.90;;;;;;5066285;28;20194;-77
2022/08/04 00:17:32;;;;;;;5.60;5.20;;;20.40;99.90;;;;;;5064501;28;20259;-77
2022/08/04 00:20:01;;;;;;;6.17;5.70;;;20.40;99.90;;;;;;5065384;28;20264;-77
2022/08/04 00:22:30;;;;;;;6.10;5.70;;;20.40;99.90;;;;;;5061297;28;20229;-76
2022/08/04 00:25:00;;;;;;;6.07;5.67;;;20.30;99.90;;;;;;5065259;28;20210;-76
2022/08/04 00:27:30;;;;;;;5.90;5.50;;;20.30;99.90;;;;;;5065403;28;20197;-76
2022/08/04 00:29:58;;;;;;;5.83;5.43;;;20.30;99.90;;;;;;5065766;28;20258;-77
2022/08/04 00:32:26;;;;;;;6.07;5.67;;;20.30;99.90;;;;;;5068814;28;20205;-77
2022/08/04 00:34:54;;;;;;;6.17;5.67;;;20.20;99.90;;;;;;5070651;28;20195;-77
2022/08/04 00:37:22;;;;;;;6.07;5.57;;;20.10;99.90;;;;;;5067762;28;20197;-76
2022/08/04 00:39:49;;;;;;;6.40;5.90;;;20.10;99.90;;;;;;5069767;28;20195;-77
2022/08/04 00:42:44;;;;;;;5.93;5.53;;;20.00;99.90;;;;;;5063802;28;20187;-77
2022/08/04 00:45:52;;;;;;;5.97;5.57;;;20.00;99.90;;;;;;5047695;28;20218;-76
2022/08/04 00:48:33;;;;;;;6.47;5.97;;;20.00;99.90;;;;;;4972798;28;20263;-77
2022/08/04 00:51:14;;;;;;;6.30;5.90;;;19.90;99.90;;;;;;5057072;28;20258;-77
2022/08/04 00:53:55;;;;;;;6.30;5.70;;;19.90;99.90;;;;;;5066384;28;20217;-76
2022/08/04 00:57:02;;;;;;;6.17;5.77;;;19.80;99.90;;;;;;5053812;28;20250;-77
2022/08/04 00:59:46;;;;;;;6.73;6.23;;;19.70;99.90;;;;;;5053683;28;20209;-76
2022/08/04 01:02:24;;;;;;;6.90;6.30;;;19.70;99.90;;;;;;5059704;28;20193;-77
2022/08/04 01:05:03;;;;;;;7.30;6.80;;;19.70;99.90;;;;;;5071477;22;20240;-77
2022/08/04 01:08:00;;;;;;;6.73;6.23;;;19.70;99.90;;;;;;5059594;28;20255;-79
2022/08/04 01:10:40;;;;;;;6.50;6.03;;;19.60;99.90;;;;;;5048758;28;20547;-77
2022/08/04 01:13:26;;;;;;;6.07;5.67;;;19.60;99.90;;;;;;5061350;28;20719;-77
2022/08/04 01:16:02;;;;;;;6.47;5.97;;;19.60;99.90;;;;;;5064420;28;20192;-77
2022/08/04 01:18:35;;;;;;;6.13;5.73;;;19.60;99.90;;;;;;5061725;28;20192;-77
2022/08/04 01:21:21;;;;;;;6.30;5.90;;;19.50;99.90;;;;;;5057396;28;20265;-77
2022/08/04 01:24:21;;;;;;;6.23;5.83;;;19.50;99.90;;;;;;5057106;28;20697;-78
2022/08/04 01:26:55;;;;;;;6.30;5.90;;;19.50;99.90;;;;;;5030898;28;20237;-77
2022/08/04 01:29:26;;;;;;;6.43;6.03;;;19.40;99.90;;;;;;5060779;28;20333;-77
2022/08/04 01:32:02;;;;;;;5.93;5.53;;;19.40;99.90;;;;;;5058451;28;20206;-77
2022/08/04 01:34:34;;;;;;;6.10;5.70;;;19.40;99.90;;;;;;5057717;28;20213;-77
2022/08/04 01:37:12;;;;;;;5.60;5.23;;;19.50;99.90;;;;;;5064092;28;20200;-77
2022/08/04 01:39:49;;;;;;;6.33;5.83;;;19.50;99.90;;;;;;5060855;28;20275;-77
2022/08/04 01:42:18;;;;;;;6.00;5.50;;;19.40;99.90;;;;;;5054464;28;20270;-77
2022/08/04 01:44:49;;;;;;;5.93;5.53;;;19.40;99.90;;;;;;5061559;28;20624;-77
2022/08/04 01:47:20;;;;;;;6.00;5.60;;;19.40;99.90;;;;;;5054547;28;20270;-77
2022/08/04 01:49:50;;;;;;;6.20;5.80;;;19.40;99.90;;;;;;5060601;28;20690;-77
2022/08/04 01:52:18;;;;;;;6.17;5.77;;;19.40;99.90;;;;;;5062994;28;20246;-77
2022/08/04 01:54:46;;;;;;;5.97;5.57;;;19.30;99.90;;;;;;5062516;28;20276;-77
2022/08/04 01:57:17;;;;;;;6.37;5.87;;;19.30;99.90;;;;;;5056576;28;20193;-77
2022/08/04 01:59:47;;;;;;;5.70;5.30;;;19.30;99.90;;;;;;5063645;28;20723;-79
2022/08/04 02:02:14;;;;;;;5.90;5.50;;;19.30;99.90;;;;;;5052170;28;20279;-77
2022/08/04 02:04:42;;;;;;;5.80;5.40;;;19.30;99.90;;;;;;5057149;28;20260;-76
2022/08/04 02:07:27;;;;;;;6.27;5.67;;;19.30;99.90;;;;;;5061276;28;20700;-77
2022/08/04 02:10:03;;;;;;;5.93;5.53;;;19.30;99.90;;;;;;5061237;28;20262;-77
2022/08/04 02:12:48;;;;;;;5.73;5.33;;;19.30;99.90;;;;;;5060485;28;20205;-78
2022/08/04 02:15:26;;;;;;;6.53;6.13;;;19.20;99.90;;;;;;5051937;28;20619;-78
2022/08/04 02:18:00;;;;;;;6.83;6.23;;;19.20;99.90;;;;;;5061813;28;20692;-79
2022/08/04 02:20:32;;;;;;;6.20;5.80;;;19.10;99.90;;;;;;5058898;28;20200;-77
2022/08/04 02:23:00;;;;;;;6.60;6.10;;;19.20;99.90;;;;;;5063227;28;20259;-77
2022/08/04 02:25:29;;;;;;;6.20;5.80;;;19.10;99.90;;;;;;5060384;28;20211;-77
2022/08/04 02:28:05;;;;;;;6.40;5.97;;;19.10;99.90;;;;;;5055144;28;20624;-77
2022/08/04 02:30:40;;;;;;;6.07;5.67;;;19.00;99.90;;;;;;5062858;28;20199;-78
2022/08/04 02:33:11;;;;;;;6.67;6.17;;;19.00;99.90;;;;;;5057594;28;20301;-77
2022/08/04 02:35:40;;;;;;;6.40;5.90;;;19.00;99.90;;;;;;5056880;28;20737;-77
2022/08/04 02:38:16;;;;;;;6.03;5.53;;;18.90;99.90;;;;;;5060932;28;20196;-78
2022/08/04 02:40:43;;;;;;;6.50;6.00;;;19.00;99.90;;;;;;5059360;28;20726;-77
2022/08/04 02:43:11;;;;;;;6.30;5.90;;;18.90;99.90;;;;;;5056075;28;20211;-76
2022/08/04 02:45:42;;;;;;;6.70;6.20;;;18.90;99.90;;;;;;5062791;28;20243;-78
2022/08/04 02:48:11;;;;;;;6.20;5.80;;;18.90;99.90;;;;;;5063553;28;20195;-78
2022/08/04 02:50:39;;;;;;;4.47;3.33;;;18.90;99.90;;;;;;5062428;28;20748;-78
2022/08/04 02:53:09;;;;;;;3.43;3.13;;;18.80;99.90;;;;;;5061785;28;20729;-77
2022/08/04 02:55:37;;;;;;;3.53;3.23;;;18.90;99.90;;;;;;5054399;28;20188;-76
2022/08/04 02:58:05;;;;;;;3.40;3.10;;;18.80;99.90;;;;;;5055749;28;20633;-76
2022/08/04 03:00:32;;;;;;;3.70;3.23;;;18.80;99.90;;;;;;5056339;28;20666;-77
2022/08/04 03:03:15;;;;;;;4.43;3.53;;;18.70;99.90;;;;;;5046123;28;20199;-77
2022/08/04 03:06:04;;;;;;;3.80;3.20;;;18.70;99.90;;;;;;5049929;28;20261;-78
2022/08/04 03:08:59;;;;;;;4.13;3.37;;;18.60;99.90;;;;;;5065861;28;20210;-76
2022/08/04 03:11:49;;;;;;;4.30;3.77;;;18.60;99.90;;;;;;5054158;28;20248;-78
2022/08/04 03:14:48;;;;;;;4.03;3.33;;;18.60;99.90;;;;;;5046505;28;20210;-78
2022/08/04 03:17:53;;;;;;;3.40;3.10;;;18.60;99.90;;;;;;5043594;28;20253;-77
2022/08/04 03:21:07;;;;;;;4.90;3.53;;;18.50;99.90;;;;;;5051203;28;20194;-76
2022/08/04 03:24:10;;;;;;;3.97;3.57;;;18.40;99.90;;;;;;4982602;28;20289;-76
2022/08/04 03:26:57;;;;;;;3.53;3.23;;;18.50;99.90;;;;;;5053948;28;20199;-76
2022/08/04 03:30:05;;;;;;;3.60;3.30;;;18.40;99.90;;;;;;5051016;28;20195;-77
2022/08/04 03:33:02;;;;;;;3.53;3.23;;;18.40;99.90;;;;;;5057513;28;20252;-77
2022/08/04 03:35:58;;;;;;;3.50;3.20;;;18.30;99.90;;;;;;5049177;28;20195;-76
2022/08/04 03:38:50;;;;;;;4.17;3.27;;;18.30;99.90;;;;;;5051671;28;20630;-77
2022/08/04 03:41:37;;;;;;;3.60;3.17;;;18.30;99.90;;;;;;5048810;28;20724;-74
2022/08/04 03:44:43;;;;;;;3.97;3.13;;;18.30;99.90;;;;;;5054628;28;20261;-76
2022/08/04 03:47:48;;;;;;;4.40;3.20;;;18.30;99.90;;;;;;5049598;28;20232;-75
2022/08/04 03:50:44;;;;;;;3.33;3.03;;;18.30;99.90;;;;;;4997950;28;20255;-76
2022/08/04 03:53:35;;;;;;;3.90;3.50;;;18.30;99.90;;;;;;5051554;28;20211;-76
2022/08/04 03:56:24;;;;;;;3.40;3.10;;;18.30;99.90;;;;;;5056579;28;20215;-76
2022/08/04 03:59:23;;;;;;;3.40;3.10;;;18.30;99.90;;;;;;5053842;28;20273;-77
2022/08/04 04:02:08;;;;;;;3.53;3.23;;;18.40;99.90;;;;;;5052706;28;20215;-78
2022/08/04 04:05:23;;;;;;;3.03;2.80;;;18.40;99.90;;;;;;5055627;28;20222;-76
2022/08/04 04:08:06;;;;;;;3.30;3.00;;;18.40;99.90;;;;;;4955980;28;20206;-76
2022/08/04 04:11:09;;;;;;;3.73;3.43;;;18.40;99.90;;;;;;5061100;28;20194;-77
2022/08/04 04:14:00;;;;;;;3.47;3.17;;;18.40;99.90;;;;;;5053350;28;20722;-74
2022/08/04 04:16:45;;;;;;;3.40;3.10;;;18.50;99.90;;;;;;5051844;28;20639;-76
2022/08/04 04:19:28;;;;;;;3.77;3.40;;;18.50;99.90;;;;;;5056751;28;20199;-77
2022/08/04 04:22:17;;;;;;;3.90;3.50;;;18.50;99.90;;;;;;5061488;28;20577;-76
2022/08/04 04:24:54;;;;;;;4.00;3.57;;;18.50;99.90;;;;;;5060031;28;20227;-76
2022/08/04 04:27:34;;;;;;;3.43;3.20;;;18.50;99.90;;;;;;5057739;28;20638;-77
2022/08/04 04:30:06;;;;;;;5.57;3.50;;;18.60;99.90;;;;;;5056956;28;20203;-76
2022/08/04 04:32:53;;;;;;;3.77;3.47;;;18.60;99.90;;;;;;5065035;28;20210;-77
2022/08/04 04:35:32;;;;;;;3.73;3.40;;;18.60;99.90;;;;;;5055750;28;20281;-77
2022/08/04 04:38:35;;;;;;;3.93;3.43;;;18.70;99.90;;;;;;5059232;28;20215;-76
2022/08/04 04:41:21;;;;;;;3.47;3.17;;;18.70;99.90;;;;;;5053576;28;20214;-76
2022/08/04 04:44:20;;;;;;;3.73;3.40;;;18.70;99.90;;;;;;5066583;28;20213;-76
2022/08/04 04:46:57;;;;;;;3.60;3.30;;;18.80;99.90;;;;;;5065794;28;20714;-76
2022/08/04 04:49:39;;;;;;;3.80;3.43;;;18.90;99.90;;;;;;5061084;28;20203;-76
2022/08/04 04:52:13;;;;;;;3.53;3.23;;;18.90;99.90;;;;;;5058485;28;20246;-76
2022/08/04 04:54:45;;;;;;;3.40;3.07;;;19.00;99.90;;;;;;5064372;28;20268;-76
2022/08/04 04:57:15;;;;;;;3.20;2.90;;;19.10;99.90;;;;;;5053632;28;20203;-76
2022/08/04 04:59:56;;;;;;;2.80;2.60;;;19.20;99.90;;;;;;5058951;28;20197;-76
2022/08/04 05:02:43;;;;;;;4.30;3.73;;;19.30;99.90;;;;;;5056287;28;20226;-76
2022/08/04 05:05:33;;;;;;;3.63;3.33;;;19.30;99.90;;;;;;5052339;28;20269;-76
2022/08/04 05:08:25;;;;;;;3.70;3.30;;;19.40;99.90;;;;;;5058197;28;20661;-77
2022/08/04 05:11:21;;;;;;;3.67;3.30;;;19.60;99.90;;;;;;5064563;28;20208;-76
2022/08/04 05:13:52;;;;;;;4.00;3.60;;;19.60;99.90;;;;;;5065308;28;20221;-77
2022/08/04 05:16:23;;;;;;;3.87;3.13;;;19.70;99.90;;;;;;5060366;28;20293;-76
2022/08/04 05:18:58;;;;;;;3.00;2.80;;;19.80;99.90;;;;;;5058975;28;20205;-77
2022/08/04 05:21:44;;;;;;;3.10;2.90;;;20.00;99.90;;;;;;5060056;28;20279;-76
2022/08/04 05:24:15;;;;;;;2.93;2.73;;;20.10;99.90;;;;;;5053783;28;20653;-77
2022/08/04 05:26:45;;;;;;;2.97;2.67;;;20.20;99.90;;;;;;5060755;28;20197;-76
2022/08/04 05:29:21;;;;;;;3.37;3.00;;;20.30;99.90;;;;;;5060518;28;20240;-76
2022/08/04 05:31:51;;;;;;;3.10;2.90;;;20.30;99.90;;;;;;5062047;28;20684;-76
2022/08/04 05:34:22;;;;;;;3.23;2.93;;;20.50;99.90;;;;;;5060433;28;20221;-77
2022/08/04 05:36:55;;;;;;;3.00;2.80;;;20.60;99.90;;;;;;5064571;28;20213;-76
2022/08/04 05:39:28;;;;;;;2.97;2.77;;;20.90;99.90;;;;;;5057751;28;20259;-78
2022/08/04 05:41:56;;;;;;;3.10;2.83;;;21.20;99.90;;;;;;5057382;28;20199;-76
2022/08/04 05:44:25;;;;;;;4.20;3.00;;;21.40;99.90;;;;;;5063477;28;20275;-76
2022/08/04 05:46:55;;;;;;;3.30;3.00;;;21.60;99.90;;;;;;5060367;28;20241;-77
2022/08/04 05:49:24;;;;;;;3.63;3.33;;;21.80;99.90;;;;;;5060674;28;20188;-77
2022/08/04 05:51:54;;;;;;;3.40;3.10;;;22.10;99.90;;;;;;5061076;28;20256;-77
2022/08/04 05:54:22;;;;;;;4.47;4.10;;;22.40;99.90;;;;;;5061386;28;20211;-77
2022/08/04 05:56:50;;;;;;;5.17;4.77;;;22.80;99.90;;;;;;5061850;28;20215;-76
2022/08/04 05:59:19;;;;;;;5.90;5.50;;;23.00;99.90;;;;;;5062565;28;20289;-77
2022/08/04 06:01:48;;;;;;;2.93;2.73;;;23.10;99.90;;;;;;5062640;28;20201;-76
2022/08/04 06:04:16;;;;;;;3.83;3.53;;;23.10;99.90;;;;;;5057420;28;20257;-77
2022/08/04 06:06:45;;;;;;;3.70;3.10;;;23.00;99.90;;;;;;5064587;28;20183;-76
2022/08/04 06:09:13;;;;;;;3.07;2.70;;;23.10;99.90;;;;;;5050148;28;20202;-77
2022/08/04 06:11:42;;;;;;;2.80;2.60;;;23.10;99.90;;;;;;5057394;28;20203;-77
2022/08/04 06:14:12;;;;;;;2.90;2.60;;;23.10;99.90;;;;;;5051278;28;20211;-77
2022/08/04 06:16:43;;;;;;;4.57;4.27;;;23.20;99.90;;;;;;5059450;28;20296;-77
2022/08/04 06:19:14;;;;;;;6.07;5.67;;;23.30;99.90;;;;;;5063600;28;20252;-76
2022/08/04 06:21:44;;;;;;;7.47;6.97;;;23.30;99.90;;;;;;5061033;28;20204;-77
2022/08/04 06:24:15;;;;;;;2.80;2.60;;;23.40;99.90;;;;;;5057896;28;20272;-77
2022/08/04 06:26:43;;;;;;;3.37;2.77;;;23.50;99.90;;;;;;5060770;28;20191;-78
2022/08/04 06:29:18;;;;;;;6.33;5.83;;;23.60;99.90;;;;;;5055783;28;20215;-77
2022/08/04 06:31:56;;;;;;;2.70;2.50;;;23.70;99.90;;;;;;5062743;28;20194;-77
2022/08/04 06:34:23;;;;;;;3.10;2.80;;;23.90;99.90;;;;;;5058312;28;20718;-77
2022/08/04 06:36:51;;;;;;;3.97;3.57;;;24.10;99.90;;;;;;5056080;28;20551;-78
2022/08/04 06:39:21;;;;;;;6.53;6.13;;;24.30;99.90;;;;;;5069668;28;20244;-77
2022/08/04 06:41:49;;;;;;;6.93;6.50;;;24.40;99.90;;;;;;5062030;28;20256;-77
2022/08/04 06:44:16;;;;;;;6.13;5.73;;;24.60;99.90;;;;;;5062265;28;20211;-77
2022/08/04 06:46:43;;;;;;;2.83;2.63;;;24.80;99.90;;;;;;5062875;28;20674;-77
2022/08/04 06:49:11;;;;;;;2.90;2.70;;;25.20;99.90;;;;;;5048639;28;20198;-77
2022/08/04 06:51:39;;;;;;;6.57;6.13;;;25.60;99.90;;;;;;5065450;28;20277;-77
2022/08/04 06:54:06;;;;;;;6.20;5.70;;;25.90;99.90;;;;;;5053748;28;20573;-77
2022/08/04 06:56:38;;;;;;;4.60;4.20;;;26.20;99.90;;;;;;5063475;28;20202;-78
2022/08/04 06:59:07;;;;;;;7.10;6.70;;;26.30;99.90;;;;;;5056743;28;20190;-77
2022/08/04 07:01:36;;;;;;;3.60;3.40;;;26.50;99.90;;;;;;5059147;28;20195;-77
2022/08/04 07:04:04;;;;;;;6.90;6.47;;;26.90;99.90;;;;;;5061018;28;20642;-76
2022/08/04 07:06:31;;;;;;;7.30;6.80;;;27.30;99.90;;;;;;5058710;28;20286;-76
2022/08/04 07:08:58;;;;;;;6.17;5.67;;;27.80;99.90;;;;;;5060878;28;20199;-76
2022/08/04 07:11:25;;;;;;;6.43;5.93;;;28.20;99.90;;;;;;5059705;28;20688;-76
2022/08/04 07:13:54;;;;;;;5.07;4.77;;;28.60;99.90;;;;;;5060531;28;20272;-76
2022/08/04 07:16:23;;;;;;;5.83;3.70;;;28.90;99.90;;;;;;5058076;28;20724;-76
2022/08/04 07:18:50;;;;;;;3.83;3.53;;;29.10;99.90;;;;;;5061027;28;20279;-76
2022/08/04 07:21:22;;;;;;;6.00;5.60;;;29.50;99.90;;;;;;5057435;28;20244;-76
2022/08/04 07:23:49;;;;;;;6.47;5.97;;;29.60;99.90;;;;;;5056745;28;20221;-76
2022/08/04 07:26:17;;;;;;;5.00;4.70;;;30.00;99.90;;;;;;5058716;28;20601;-76
2022/08/04 07:28:45;;;;;;;4.90;4.60;;;30.20;99.90;;;;;;5058427;28;20195;-76
2022/08/04 07:31:16;;;;;;;3.40;3.10;;;30.40;99.90;;;;;;5050548;28;20195;-76
2022/08/04 07:33:44;;;;;;;6.47;5.80;;;30.50;99.90;;;;;;5056006;28;20277;-76
2022/08/04 07:36:12;;;;;;;9.53;8.90;;;30.90;99.90;;;;;;5062199;28;20202;-76
2022/08/04 07:38:40;;;;;;;6.20;5.60;;;31.10;99.90;;;;;;5061051;28;20319;-76
2022/08/04 07:41:07;;;;;;;5.97;5.47;;;31.30;99.90;;;;;;5053657;28;20209;-76
2022/08/04 07:43:36;;;;;;;5.67;4.70;;;31.70;99.90;;;;;;5061501;28;20351;-76
2022/08/04 07:46:03;;;;;;;3.93;3.40;;;31.40;99.90;;;;;;5057860;28;20610;-76
2022/08/04 07:48:31;;;;;;;5.50;4.20;;;31.50;99.90;;;;;;5057458;28;20620;-76
2022/08/04 07:50:59;;;;;;;5.30;5.00;;;31.50;99.90;;;;;;5060900;28;20264;-76
2022/08/04 07:53:27;;;;;;;5.90;5.50;;;32.00;99.80;;;;;;5059222;28;20288;-76
2022/08/04 07:55:54;;;;;;;6.10;5.70;;;32.10;98.50;;;;;;5059710;28;20251;-76
2022/08/04 07:58:21;;;;;;;6.77;6.27;;;32.10;99.40;;;;;;5058156;28;20633;-77
2022/08/04 08:00:48;;;;;;;7.20;6.70;;;32.20;98.40;;;;;;5062367;28;20199;-77
2022/08/04 08:03:16;;;;;;;7.50;7.00;;;32.20;99.40;;;;;;5058282;28;20218;-76
2022/08/04 08:05:44;;;;;;;7.30;6.80;;;32.50;98.90;;;;;;5058128;28;20229;-77
2022/08/04 08:08:11;;;;;;;7.60;6.97;;;33.00;99.10;;;;;;5055640;28;20240;-77
2022/08/04 08:10:39;;;;;;;6.40;5.90;;;32.60;97.80;;;;;;5062410;28;20191;-77
2022/08/04 08:13:07;;;;;;;7.18;6.68;;;32.60;97.70;;;;;;5064349;28;20618;-77
2022/08/04 08:15:35;;;;;;;4.63;3.20;;;32.50;98.50;;;;;;5063356;28;20195;-77
2022/08/04 08:18:02;;;;;;;5.95;5.20;;;32.80;98.50;;;;;;5062014;28;20253;-77
2022/08/04 08:20:30;;;;;;;6.40;5.90;;;32.90;98.10;;;;;;5063270;28;20249;-77
2022/08/04 08:23:00;;;;;;;3.83;3.53;;;33.00;98.50;;;;;;5065958;28;20198;-77
2022/08/04 08:25:29;;;;;;;4.85;4.45;;;32.90;97.80;;;;;;5060049;28;20602;-77
2022/08/04 08:27:56;;;;;;;6.03;5.63;;;33.00;97.90;;;;;;5059796;28;20203;-77
2022/08/04 08:30:23;;;;;;;7.25;6.80;;;33.40;98.40;;;;;;5062440;28;20607;-77
2022/08/04 08:32:50;;;;;;;7.18;6.70;;;33.60;98.00;;;;;;5063440;28;20698;-77
2022/08/04 08:35:17;;;;;;;7.10;6.47;;;33.70;97.70;;;;;;5061622;28;20253;-77
2022/08/04 08:37:51;;;;;;;5.43;5.03;;;34.10;97.60;;;;;;5058165;28;20640;-77
2022/08/04 08:40:30;;;;;;;6.05;5.65;;;34.30;97.50;;;;;;5065171;28;20191;-77
2022/08/04 08:43:47;;;;;;;7.55;6.95;;;34.30;96.20;;;;;;5065620;28;20198;-77
2022/08/04 08:46:38;;;;;;;8.35;7.53;;;33.70;97.60;;;;;;5000496;28;20205;-77
2022/08/04 08:49:34;;;;;;;6.80;6.30;;;33.70;97.40;;;;;;4985040;28;20206;-77
2022/08/04 08:52:20;;;;;;;5.90;5.50;;;33.70;98.10;;;;;;5048502;28;20195;-77
2022/08/04 08:54:56;;;;;;;6.40;5.75;;;34.10;97.30;;;;;;5062619;28;20213;-77
2022/08/04 08:57:38;;;;;;;7.57;6.80;;;34.20;97.10;;;;;;5063054;28;20203;-77
2022/08/04 09:00:15;;;;;;;7.63;7.00;;;34.60;95.70;;;;;;5062850;28;20182;-78
2022/08/04 09:03:14;;;;;;;7.05;6.47;;;34.70;96.50;;;;;;5063243;28;20195;-80
2022/08/04 09:06:04;;;;;;;7.40;6.90;;;34.80;96.40;;;;;;5059028;28;20187;-77
2022/08/04 09:08:55;;;;;;;7.20;6.60;;;35.00;95.40;;;;;;5054577;28;20192;-77
2022/08/04 09:11:24;;;;;;;7.43;6.82;;;35.30;96.40;;;;;;5061059;28;20203;-77
2022/08/04 09:13:57;;;;;;;7.68;6.35;;;35.30;95.10;;;;;;5059410;28;20730;-76
2022/08/04 09:16:35;;;;;;;7.43;6.72;;;35.60;94.50;;;;;;5064907;28;20745;-77
2022/08/04 09:19:08;;;;;;;6.32;5.93;;;35.90;93.20;;;;;;5065679;28;20703;-77
2022/08/04 09:21:41;;;;;;;7.53;6.82;;;35.80;92.80;;;;;;5062854;28;20201;-77
2022/08/04 09:24:12;;;;;;;8.00;6.47;;;35.60;92.90;;;;;;5057991;28;20240;-77
2022/08/04 09:26:44;;;;;;;6.28;5.88;;;35.60;93.50;;;;;;5065917;28;20603;-77
2022/08/04 09:29:19;;;;;;;6.30;5.70;;;35.80;92.40;;;;;;5052531;28;20194;-77
2022/08/04 09:31:56;;;;;;;5.57;5.07;;;36.10;91.60;;;;;;5058416;28;20202;-77
2022/08/04 09:34:34;;;;;;;5.40;5.00;;;36.30;90.30;;;;;;5059932;28;20218;-77
2022/08/04 09:37:11;;;;;;;5.07;4.68;;;36.40;91.30;;;;;;5060817;28;20210;-77
2022/08/04 09:39:46;;;;;;;4.80;4.50;;;36.50;90.30;;;;;;5061832;28;20755;-77
2022/08/04 09:42:25;;;;;;;4.35;4.05;;;36.50;87.70;;;;;;5052669;28;20671;-77
2022/08/04 09:45:03;;;;;;;4.97;4.55;;;36.80;89.20;;;;;;5061101;28;20214;-77
2022/08/04 09:47:35;;;;;;;5.00;4.50;;;37.00;89.30;;;;;;5055273;28;20194;-77
2022/08/04 09:50:12;;;;;;;5.90;5.57;;;37.10;84.50;;;;;;5060441;28;20305;-77
2022/08/04 09:52:47;;;;;;;5.15;4.65;;;37.20;87.50;;;;;;5061659;28;20672;-77
2022/08/04 09:55:26;;;;;;;5.68;5.38;;;37.30;83.50;;;;;;5058609;28;20195;-77
2022/08/04 09:58:01;;;;;;;6.20;5.60;;;37.50;86.40;;;;;;5064103;28;20213;-77
2022/08/04 10:00:36;;;;;;;5.80;5.30;;;37.70;85.60;;;;;;5055116;28;20194;-77
2022/08/04 10:03:03;;;;;;;5.53;5.18;;;37.60;82.60;;;;;;5060248;28;20276;-77
2022/08/04 10:05:44;;;;;;;5.50;5.15;;;37.40;83.50;;;;;;5061007;28;20201;-77
2022/08/04 10:08:29;;;;;;;3.90;3.60;;;37.50;81.50;;;;;;5053250;28;20183;-77
2022/08/04 10:11:03;;;;;;;4.43;3.80;;;37.40;82.60;;;;;;5061579;28;20195;-77
2022/08/04 10:13:41;;;;;;;4.05;3.75;;;37.60;82.80;;;;;;5060985;28;20761;-77
2022/08/04 10:16:32;;;;;;;4.75;4.10;;;37.70;83.70;;;;;;5064056;28;20194;-77
2022/08/04 10:19:07;;;;;;;5.00;4.70;;;37.40;80.90;;;;;;5062963;28;20210;-77
2022/08/04 10:21:43;;;;;;;5.78;5.25;;;37.50;81.40;;;;;;5063074;28;20658;-76
2022/08/04 10:24:30;;;;;;;5.80;5.40;;;37.60;81.00;;;;;;5071343;28;20210;-77
2022/08/04 10:27:02;;;;;;;5.60;5.22;;;37.70;80.40;;;;;;5060783;28;20250;-77
2022/08/04 10:29:37;;;;;;;5.90;5.50;;;37.70;81.00;;;;;;5062281;28;20257;-77
2022/08/04 10:32:11;;;;;;;5.50;5.20;;;37.60;76.40;;;;;;5064301;28;20235;-77
2022/08/04 10:34:43;;;;;;;6.15;5.60;;;37.50;77.30;;;;;;5060348;28;20217;-77
2022/08/04 10:37:21;;;;;;;5.63;5.25;;;37.30;77.90;;;;;;5058175;28;20196;-77
2022/08/04 10:42:45;;;;;;;5.40;5.10;;;36.80;75.70;;;;;;5055167;28;20187;-77
2022/08/04 10:45:18;;;;;;;5.25;4.95;;;36.50;73.70;;;;;;5058003;28;20194;-76
2022/08/04 10:47:54;;;;;;;5.35;5.05;;;36.40;75.20;;;;;;5058709;28;20572;-77
2022/08/04 10:50:25;;;;;;;5.25;4.95;;;36.30;75.20;;;;;;5058833;28;20195;-77
2022/08/04 10:52:59;;;;;;;5.38;5.07;;;36.10;75.70;;;;;;5060934;28;20198;-77
2022/08/04 10:55:33;;;;;;;5.53;5.22;;;36.00;72.20;;;;;;5058801;28;20261;-79
2022/08/04 10:58:02;;;;;;;5.38;5.07;;;35.80;73.10;;;;;;5060899;28;20565;-78
2022/08/04 11:00:30;;;;;;;2.53;2.38;;;35.80;74.40;;;;;;5060409;28;20265;-77
2022/08/04 11:03:07;;;;;;;2.58;2.38;;;35.80;74.40;;;;;;5061207;28;20234;-77
2022/08/04 11:05:41;;;;;;;2.40;2.30;;;36.00;75.20;;;;;;5057767;28;20206;-77
2022/08/04 11:08:12;;;;;;;2.38;2.25;;;36.20;75.00;;;;;;5062157;28;20241;-79
2022/08/04 11:10:45;;;;;;;2.30;2.20;;;36.20;74.00;;;;;;5059229;28;20253;-77
2022/08/04 11:13:16;;;;;;;2.40;2.30;;;36.30;74.40;;;;;;5054670;28;20264;-77
2022/08/04 11:15:49;;;;;;;2.30;2.20;;;36.30;74.20;;;;;;5056561;28;20246;-77
2022/08/04 11:18:26;;;;;;;2.67;2.58;;;36.30;73.50;;;;;;5058683;28;20207;-80
2022/08/04 11:20:57;;;;;;;4.38;4.07;;;36.20;74.70;;;;;;5059056;28;20211;-78
2022/08/04 11:23:28;;;;;;;5.30;5.00;;;36.30;73.80;;;;;;5058490;28;20207;-77
2022/08/04 11:26:00;;;;;;;5.60;5.30;;;36.30;73.30;;;;;;5060464;28;20184;-77
2022/08/04 11:28:37;;;;;;;2.80;2.60;;;36.20;73.80;;;;;;5059500;28;20199;-77
2022/08/04 11:31:06;;;;;;;2.70;2.50;;;36.00;73.20;;;;;;5057540;28;20201;-78
2022/08/04 11:33:43;;;;;;;2.60;2.40;;;36.00;74.00;;;;;;5055968;28;20288;-77
2022/08/04 11:36:19;;;;;;;2.70;2.50;;;35.90;73.60;;;;;;5050323;28;20248;-77
2022/08/04 11:38:51;;;;;;;2.97;2.78;;;35.80;74.20;;;;;;5059892;28;20202;-77
2022/08/04 11:41:22;;;;;;;3.45;3.15;;;35.80;74.60;;;;;;5059893;28;20249;-78
2022/08/04 11:43:55;;;;;;;4.63;4.32;;;35.70;75.00;;;;;;5059663;28;20457;-78
2022/08/04 11:46:27;;;;;;;3.38;3.17;;;35.60;75.20;;;;;;5062909;28;20184;-78
2022/08/04 11:49:01;;;;;;;2.85;2.65;;;35.60;73.30;;;;;;5055026;28;20253;-77
2022/08/04 11:51:29;;;;;;;5.30;5.00;;;35.50;74.10;;;;;;5064325;28;20194;-79
2022/08/04 11:53:56;;;;;;;5.05;4.72;;;35.30;72.40;;;;;;5063284;28;20272;-78
2022/08/04 11:56:23;;;;;;;5.50;5.20;;;35.30;74.60;;;;;;5059308;28;20194;-78
2022/08/04 11:58:50;;;;;;;5.50;5.20;;;35.30;74.30;;;;;;5057034;28;20268;-77
2022/08/04 12:01:25;;;;;;;5.55;5.15;;;35.30;74.00;;;;;;5060690;28;20192;-77
2022/08/04 12:04:03;;;;;;;5.50;5.20;;;35.20;73.60;;;;;;5061771;28;20222;-77
2022/08/04 12:06:38;;;;;;;5.93;5.50;;;35.10;74.00;;;;;;5058947;28;20199;-78
2022/08/04 12:09:12;;;;;;;6.00;5.60;;;35.00;73.40;;;;;;5062274;28;20529;-77
2022/08/04 12:11:55;;;;;;;5.65;5.22;;;34.90;74.10;;;;;;5061827;28;20232;-77
2022/08/04 12:14:43;;;;;;;5.22;4.93;;;34.90;74.50;;;;;;5054362;28;20206;-78
2022/08/04 12:17:12;;;;;;;6.00;5.60;;;34.80;75.30;;;;;;5061318;28;20191;-77
2022/08/04 12:19:49;;;;;;;5.90;5.50;;;35.00;74.20;;;;;;5061181;28;20269;-77
2022/08/04 12:22:24;;;;;;;5.72;5.32;;;35.00;74.00;;;;;;5059672;28;20652;-77
2022/08/04 12:24:58;;;;;;;5.70;5.32;;;35.00;74.70;;;;;;5067746;28;20313;-77
2022/08/04 12:27:29;;;;;;;5.40;5.10;;;35.00;76.50;;;;;;5061401;28;20195;-77
2022/08/04 12:29:56;;;;;;;5.47;5.18;;;34.90;75.10;;;;;;5062378;28;20571;-78
2022/08/04 12:32:28;;;;;;;5.63;5.28;;;35.00;74.60;;;;;;5059140;28;20248;-77
2022/08/04 12:35:07;;;;;;;5.40;5.10;;;34.90;74.40;;;;;;5056201;28;20632;-77
2022/08/04 12:37:44;;;;;;;5.40;5.10;;;35.00;74.60;;;;;;5063571;28;20232;-78
2022/08/04 12:40:16;;;;;;;5.25;4.95;;;35.00;73.70;;;;;;5048879;28;20571;-77
2022/08/04 12:42:50;;;;;;;5.25;4.95;;;35.10;73.70;;;;;;5055630;28;20203;-78
2022/08/04 12:45:18;;;;;;;5.60;5.28;;;35.10;72.70;;;;;;5054303;28;20194;-77
2022/08/04 12:47:46;;;;;;;5.55;5.25;;;35.00;72.70;;;;;;5059216;28;20188;-77
2022/08/04 12:50:17;;;;;;;5.35;5.05;;;35.00;74.00;;;;;;5065540;28;20183;-78
2022/08/04 12:52:48;;;;;;;5.55;5.25;;;35.00;73.70;;;;;;5064610;28;20192;-77
2022/08/04 12:55:16;;;;;;;5.90;5.50;;;35.00;73.10;;;;;;5055508;28;20203;-77
2022/08/04 12:57:44;;;;;;;5.80;5.40;;;34.90;73.90;;;;;;5059714;28;20203;-77
2022/08/04 13:00:22;;;;;;;5.88;5.40;;;34.90;74.90;;;;;;5065874;28;20219;-77
2022/08/04 13:02:49;;;;;;;5.95;5.40;;;34.90;74.70;;;;;;5066035;28;20638;-77
2022/08/04 13:05:18;;;;;;;5.88;5.47;;;34.80;74.40;;;;;;5060358;28;20673;-78
2022/08/04 13:07:49;;;;;;;5.60;5.20;;;34.90;74.50;;;;;;5057685;28;20195;-77
2022/08/04 13:10:18;;;;;;;5.10;4.80;;;34.90;73.10;;;;;;5065186;28;20252;-78
2022/08/04 13:12:52;;;;;;;5.90;5.40;;;35.00;73.20;;;;;;5063015;28;20191;-77
2022/08/04 13:15:22;;;;;;;5.32;5.03;;;35.00;73.80;;;;;;5057145;28;20660;-77
2022/08/04 13:17:52;;;;;;;5.57;5.28;;;35.00;72.10;;;;;;5063662;28;20195;-77
2022/08/04 13:20:27;;;;;;;5.30;5.00;;;35.00;72.00;;;;;;5066099;28;20215;-77
2022/08/04 13:23:00;;;;;;;5.18;4.88;;;34.90;72.20;;;;;;5058665;28;20614;-77
2022/08/04 13:25:29;;;;;;;2.75;2.55;;;34.80;71.90;;;;;;5065881;28;20277;-77
2022/08/04 13:27:57;;;;;;;3.00;2.80;;;34.80;72.30;;;;;;5058568;28;20195;-77
2022/08/04 13:30:25;;;;;;;5.40;5.10;;;34.80;72.00;;;;;;5056042;28;20734;-78
2022/08/04 13:32:55;;;;;;;5.35;5.05;;;34.80;72.30;;;;;;5049355;28;20204;-77
2022/08/04 13:35:26;;;;;;;5.20;4.90;;;34.70;72.90;;;;;;5056720;28;20183;-77